createdAt,value
2018-11-28T00:00:30.631Z,95965.61
2018-11-28T00:02:59.689Z,95963.87
2018-11-28T00:05:28.766Z,95969.27
2018-11-28T00:07:57.838Z,95967.67
2018-11-28T00:10:26.906Z,95967.88
2018-11-28T00:13:07.722Z,95966.94
2018-11-28T00:15:36.755Z,95969.19
2018-11-28T00:20:41.506Z,95966.56
2018-11-28T00:23:10.577Z,95967.11
2018-11-28T00:25:39.640Z,95965.48
2018-11-28T00:28:08.720Z,95962.47
2018-11-28T00:30:37.780Z,95959.86
2018-11-28T00:33:14.874Z,95961.28
2018-11-28T00:35:43.943Z,95971.41
2018-11-28T00:38:13.131Z,95967.77
2018-11-28T00:40:42.184Z,95967.22
2018-11-28T00:43:11.244Z,95962.21
2018-11-28T00:45:40.407Z,95959.43
2018-11-28T00:48:09.471Z,95963.59
2018-11-28T00:50:38.526Z,95967.81
2018-11-28T00:53:07.595Z,95970.95
2018-11-28T00:55:36.656Z,95969.37
2018-11-28T00:58:05.719Z,95967.35
2018-11-28T01:03:10.531Z,95977.61
2018-11-28T01:05:40.556Z,95981.95
2018-11-28T01:08:10.567Z,95984.73
2018-11-28T01:10:39.655Z,95981.47
2018-11-28T01:13:08.740Z,95982.56
2018-11-28T01:15:37.819Z,95989.68
2018-11-28T01:18:06.871Z,95991.70
2018-11-28T01:20:35.931Z,95992.13
2018-11-28T01:23:04.995Z,95998.42
2018-11-28T01:25:34.051Z,95993.94
2018-11-28T01:28:03.122Z,95992.59
2018-11-28T01:30:32.192Z,95990.66
2018-11-28T01:33:02.294Z,95993.52
2018-11-28T01:35:31.375Z,95988.50
2018-11-28T01:40:38.325Z,96000.45
2018-11-28T01:43:07.394Z,95999.91
2018-11-28T01:45:36.471Z,96007.77
2018-11-28T01:48:05.651Z,96009.11
2018-11-28T01:50:34.689Z,96001.76
2018-11-28T01:53:03.755Z,96001.16
2018-11-28T01:55:32.843Z,95999.27
2018-11-28T01:58:01.889Z,96000.08
2018-11-28T02:00:30.964Z,96001.02
2018-11-28T02:05:35.739Z,96002.49
2018-11-28T02:08:05.728Z,96003.80
2018-11-28T02:10:35.768Z,96003.28
2018-11-28T02:13:04.829Z,95999.00
2018-11-28T02:15:33.912Z,96002.62
2018-11-28T02:18:02.991Z,96001.00
2018-11-28T02:20:36.543Z,96001.54
2018-11-28T02:23:05.588Z,96011.26
2018-11-28T02:25:34.710Z,96007.09
2018-11-28T02:28:03.774Z,96006.59
2018-11-28T02:30:33.775Z,96009.38
2018-11-28T02:33:02.835Z,96007.86
2018-11-28T02:35:31.968Z,96009.10
2018-11-28T02:38:01.049Z,96010.56
2018-11-28T02:40:30.153Z,96012.59
2018-11-28T02:45:37.050Z,96023.94
2018-11-28T02:48:06.124Z,96021.69
2018-11-28T02:50:35.227Z,96022.80
2018-11-28T02:53:04.302Z,96021.81
2018-11-28T02:55:33.447Z,96018.73
2018-11-28T02:58:02.545Z,96025.88
2018-11-28T03:00:31.619Z,96028.48
2018-11-28T03:03:09.827Z,96030.33
2018-11-28T03:05:38.881Z,96024.73
2018-11-28T03:08:07.954Z,96026.28
2018-11-28T03:14:09.129Z,96029.58
2018-11-28T03:16:38.230Z,96028.02
2018-11-28T03:19:07.289Z,96027.84
2018-11-28T03:21:36.637Z,96033.38
2018-11-28T03:24:05.724Z,96032.92
2018-11-28T03:26:35.726Z,96026.34
2018-11-28T03:31:41.211Z,96037.64
2018-11-28T03:34:10.531Z,96036.89
2018-11-28T03:36:39.610Z,96035.64
2018-11-28T03:39:08.779Z,96035.28
2018-11-28T03:41:37.828Z,96033.98
2018-11-28T03:44:06.908Z,96033.66
2018-11-28T03:46:35.967Z,96033.45
2018-11-28T03:51:41.686Z,96040.42
2018-11-28T03:54:10.764Z,96043.17
2018-11-28T03:56:40.795Z,96046.73
2018-11-28T03:59:09.876Z,96048.94
2018-11-28T04:01:38.926Z,96052.00
2018-11-28T04:04:08.011Z,96054.42
2018-11-28T04:06:37.127Z,96053.45
2018-11-28T04:09:06.216Z,96052.15
2018-11-28T04:11:35.290Z,96054.50
2018-11-28T04:14:04.381Z,96044.73
2018-11-28T04:16:34.419Z,96042.48
2018-11-28T04:19:03.500Z,96044.66
2018-11-28T04:21:32.559Z,96039.41
2018-11-28T04:24:01.681Z,96035.08
2018-11-28T04:26:31.633Z,96041.52
2018-11-28T04:29:02.884Z,96048.28
2018-11-28T04:34:07.653Z,96042.81
2018-11-28T04:36:36.716Z,96039.88
2018-11-28T04:39:05.785Z,96039.38
2018-11-28T04:41:34.852Z,96047.38
2018-11-28T04:46:39.683Z,96050.66
2018-11-28T04:49:08.859Z,96050.12
2018-11-28T04:51:37.924Z,96052.39
2018-11-28T04:54:07.088Z,96060.41
2018-11-28T04:56:36.156Z,96057.72
2018-11-28T04:59:07.040Z,96055.31
2018-11-28T05:01:36.120Z,96054.89
2018-11-28T05:04:06.140Z,96052.33
2018-11-28T05:06:35.203Z,96051.47
2018-11-28T05:09:04.267Z,96053.47
2018-11-28T05:11:33.389Z,96054.31
2018-11-28T05:14:03.367Z,96052.01
2018-11-28T05:16:32.547Z,96052.97
2018-11-28T05:19:01.627Z,96051.89
2018-11-28T05:24:06.440Z,96049.30
2018-11-28T05:26:35.700Z,96050.86
2018-11-28T05:29:04.796Z,96052.63
2018-11-28T05:31:34.933Z,96059.82
2018-11-28T05:34:04.992Z,96062.44
2018-11-28T05:36:34.064Z,96061.70
2018-11-28T05:39:03.359Z,96064.31
2018-11-28T05:41:32.433Z,96071.62
2018-11-28T05:44:01.488Z,96072.77
2018-11-28T05:46:30.735Z,96079.24
2018-11-28T05:48:59.846Z,96079.77
2018-11-28T05:51:29.023Z,96080.34
2018-11-28T05:54:02.813Z,96078.88
2018-11-28T05:56:43.729Z,96081.43
2018-11-28T05:59:27.423Z,96080.28
2018-11-28T06:02:05.534Z,96079.92
2018-11-28T06:04:35.054Z,96080.81
2018-11-28T06:07:04.168Z,96080.76
2018-11-28T06:09:34.286Z,96081.88
2018-11-28T06:14:50.205Z,96088.60
2018-11-28T06:17:19.259Z,96094.95
2018-11-28T06:19:48.372Z,96091.49
2018-11-28T06:24:53.417Z,96091.52
2018-11-28T06:27:22.495Z,96099.37
2018-11-28T06:29:51.591Z,96100.11
2018-11-28T06:32:20.640Z,96109.22
2018-11-28T06:34:49.711Z,96106.09
2018-11-28T06:37:18.776Z,96103.59
2018-11-28T06:42:23.542Z,96106.30
2018-11-28T06:44:52.608Z,96110.62
2018-11-28T06:47:21.670Z,96110.22
2018-11-28T06:49:51.744Z,96113.70
2018-11-28T06:52:20.808Z,96121.81
2018-11-28T06:54:50.859Z,96124.72
2018-11-28T07:00:01.855Z,96132.39
2018-11-28T07:02:31.868Z,96136.60
2018-11-28T07:05:00.928Z,96147.03
2018-11-28T07:07:30.025Z,96143.05
2018-11-28T07:09:59.095Z,96147.66
2018-11-28T07:12:28.670Z,96145.89
2018-11-28T07:14:57.760Z,96157.16
2018-11-28T07:17:26.803Z,96152.69
2018-11-28T07:22:31.539Z,96148.67
2018-11-28T07:25:00.650Z,96148.80
2018-11-28T07:27:30.626Z,96151.52
2018-11-28T07:30:00.661Z,96149.40
2018-11-28T07:32:29.771Z,96153.13
2018-11-28T07:34:59.865Z,96150.64
2018-11-28T07:37:28.918Z,96146.94
2018-11-28T07:40:05.790Z,96150.72
2018-11-28T07:42:34.848Z,96159.80
2018-11-28T07:45:03.923Z,96152.33
2018-11-28T07:47:33.023Z,96153.56
2018-11-28T07:50:02.083Z,96154.11
2018-11-28T07:52:32.095Z,96154.30
2018-11-28T07:55:01.163Z,96161.25
2018-11-28T07:57:30.407Z,96159.00
2018-11-28T07:59:59.509Z,96157.17
2018-11-28T08:02:29.838Z,96156.94
2018-11-28T08:04:59.579Z,96163.41
2018-11-28T08:10:05.425Z,96166.20
2018-11-28T08:12:34.475Z,96171.12
2018-11-28T08:15:03.541Z,96170.08
2018-11-28T08:17:32.604Z,96172.66
2018-11-28T08:20:01.669Z,96168.90
2018-11-28T08:25:07.547Z,96168.49
2018-11-28T08:27:36.383Z,96164.84
2018-11-28T08:30:05.610Z,96170.16
2018-11-28T08:32:34.687Z,96168.70
2018-11-28T08:35:03.757Z,96169.75
2018-11-28T08:37:32.810Z,96171.32
2018-11-28T08:40:01.881Z,96177.98
2018-11-28T08:42:30.946Z,96173.38
2018-11-28T08:47:35.736Z,96181.31
2018-11-28T08:50:04.832Z,96183.99
2018-11-28T08:52:33.890Z,96180.69
2018-11-28T08:55:03.015Z,96189.26
2018-11-28T08:57:32.895Z,96187.11
2018-11-28T09:00:01.982Z,96188.11
2018-11-28T09:02:31.052Z,96183.41
2018-11-28T09:07:36.816Z,96179.00
2018-11-28T09:10:05.908Z,96185.31
2018-11-28T09:12:35.293Z,96190.77
2018-11-28T09:15:05.631Z,96190.37
2018-11-28T09:17:34.693Z,96194.89
2018-11-28T09:20:03.755Z,96192.58
2018-11-28T09:22:32.814Z,96198.16
2018-11-28T09:25:07.458Z,96202.32
2018-11-28T09:27:36.512Z,96201.81
2018-11-28T09:30:06.759Z,96202.73
2018-11-28T09:32:35.823Z,96203.24
2018-11-28T09:35:05.804Z,96202.55
2018-11-28T09:37:34.855Z,96207.64
2018-11-28T09:40:03.933Z,96211.20
2018-11-28T09:42:33.009Z,96213.59
2018-11-28T09:45:02.067Z,96212.84
2018-11-28T09:50:06.888Z,96205.98
2018-11-28T09:52:36.142Z,96204.08
2018-11-28T09:57:40.811Z,96206.55
2018-11-28T10:00:09.863Z,96213.00
2018-11-28T10:02:38.907Z,96215.06
2018-11-28T10:05:07.956Z,96208.27
2018-11-28T10:07:43.242Z,96203.05
2018-11-28T10:10:12.271Z,96200.98
2018-11-28T10:15:17.012Z,96197.81
2018-11-28T10:17:46.171Z,96199.03
2018-11-28T10:20:18.263Z,96197.33
2018-11-28T10:22:47.303Z,96199.39
2018-11-28T10:25:16.354Z,96193.34
2018-11-28T10:27:45.414Z,96187.20
2018-11-28T10:32:50.257Z,96191.98
2018-11-28T10:35:20.340Z,96177.66
2018-11-28T10:37:49.392Z,96180.13
2018-11-28T10:42:54.221Z,96183.85
2018-11-28T10:45:23.573Z,96175.55
2018-11-28T10:47:57.310Z,96177.27
2018-11-28T10:50:28.292Z,96178.94
2018-11-28T10:52:57.343Z,96180.27
2018-11-28T10:55:27.327Z,96185.81
2018-11-28T10:57:56.396Z,96184.61
2018-11-28T11:00:26.361Z,96182.02
2018-11-28T11:02:55.399Z,96182.47
2018-11-28T11:13:11.547Z,96186.42
2018-11-28T11:18:16.290Z,96184.56
2018-11-28T11:20:45.361Z,96184.38
2018-11-28T11:23:14.427Z,96182.25
2018-11-28T11:25:43.477Z,96178.12
2018-11-28T11:28:13.419Z,96172.58
2018-11-28T11:30:43.611Z,96164.69
2018-11-28T11:33:14.667Z,96160.44
2018-11-28T11:35:44.666Z,96163.69
2018-11-28T11:38:13.718Z,96166.30
2018-11-28T11:40:42.777Z,96162.89
2018-11-28T11:43:11.823Z,96166.43
2018-11-28T11:45:40.867Z,96173.16
2018-11-28T11:48:09.948Z,96168.95
2018-11-28T11:50:39.032Z,96169.52
2018-11-28T11:53:09.552Z,96167.31
2018-11-28T11:58:04.172Z,96167.89
2018-11-28T12:00:33.303Z,96162.34
2018-11-28T12:03:03.059Z,96155.03
2018-11-28T12:05:32.119Z,96150.87
2018-11-28T12:08:02.121Z,96142.46
2018-11-28T12:13:08.100Z,96142.88
2018-11-28T12:15:38.978Z,96146.28
2018-11-28T12:18:08.007Z,96148.28
2018-11-28T12:20:38.002Z,96148.02
2018-11-28T12:23:07.047Z,96149.63
2018-11-28T12:25:37.095Z,96147.57
2018-11-28T12:28:06.143Z,96146.47
2018-11-28T12:30:35.273Z,96147.01
2018-11-28T12:33:04.472Z,96149.36
2018-11-28T12:35:33.772Z,96143.16
2018-11-28T12:40:40.504Z,96137.11
2018-11-28T12:43:09.566Z,96141.97
2018-11-28T12:45:38.788Z,96140.25
2018-11-28T12:48:07.809Z,96146.01
2018-11-28T12:50:37.846Z,96136.89
2018-11-28T12:53:07.068Z,96142.70
2018-11-28T12:55:36.127Z,96140.38
2018-11-28T12:58:05.177Z,96145.25
2018-11-28T13:00:34.596Z,96147.64
2018-11-28T13:03:03.619Z,96134.17
2018-11-28T13:05:32.711Z,96143.34
2018-11-28T13:08:01.725Z,96140.28
2018-11-28T13:10:30.779Z,96132.19
2018-11-28T13:12:59.832Z,96136.83
2018-11-28T13:15:30.872Z,96140.20
2018-11-28T13:17:59.912Z,96140.94
2018-11-28T13:20:29.867Z,96140.21
2018-11-28T13:22:59.019Z,96143.06
2018-11-28T13:25:29.014Z,96148.94
2018-11-28T13:27:58.396Z,96142.63
2018-11-28T13:33:04.522Z,96148.95
2018-11-28T13:35:34.786Z,96154.77
2018-11-28T13:38:03.903Z,96151.00
2018-11-28T13:40:33.000Z,96155.82
2018-11-28T13:45:38.784Z,96158.54
2018-11-28T13:48:08.069Z,96157.31
2018-11-28T13:50:37.177Z,96153.44
2018-11-28T13:53:06.296Z,96151.50
2018-11-28T13:55:38.495Z,96146.63
2018-11-28T13:58:04.496Z,96152.08
2018-11-28T14:00:35.340Z,96149.94
2018-11-28T14:03:07.807Z,96153.27
2018-11-28T14:05:36.921Z,96152.17
2018-11-28T14:08:05.981Z,96154.03
2018-11-28T14:10:35.052Z,96156.44
2018-11-28T14:13:04.154Z,96152.02
2018-11-28T14:15:33.187Z,96151.98
2018-11-28T14:18:03.219Z,96152.77
2018-11-28T14:20:32.315Z,96152.84
2018-11-28T14:23:09.892Z,96153.44
2018-11-28T14:25:38.923Z,96148.17
2018-11-28T14:28:07.963Z,96157.01
2018-11-28T14:30:37.044Z,96158.05
2018-11-28T14:33:06.107Z,96156.72
2018-11-28T14:35:35.152Z,96157.52
2018-11-28T14:38:04.218Z,96159.70
2018-11-28T14:40:33.277Z,96158.38
2018-11-28T14:43:02.332Z,96151.22
2018-11-28T14:45:31.468Z,96149.98
2018-11-28T14:48:00.507Z,96149.88
2018-11-28T14:50:29.561Z,96151.34
2018-11-28T14:52:58.634Z,96155.54
2018-11-28T14:55:31.100Z,96161.46
2018-11-28T14:58:00.458Z,96162.25
2018-11-28T15:00:29.511Z,96163.35
2018-11-28T15:02:58.547Z,96168.23
2018-11-28T15:05:34.539Z,96164.72
2018-11-28T15:08:03.575Z,96174.56
2018-11-28T15:10:32.730Z,96176.26
2018-11-28T15:13:01.766Z,96178.69
2018-11-28T15:15:30.862Z,96170.59
2018-11-28T15:17:59.891Z,96171.80
2018-11-28T15:20:28.984Z,96177.56
2018-11-28T15:23:00.056Z,96170.97
2018-11-28T15:25:29.099Z,96170.08
2018-11-28T15:27:58.171Z,96172.75
2018-11-28T15:30:27.215Z,96177.94
2018-11-28T15:32:56.807Z,96174.56
2018-11-28T15:35:25.848Z,96175.19
2018-11-28T15:37:54.894Z,96169.98
2018-11-28T15:40:23.941Z,96168.20
2018-11-28T15:42:52.995Z,96165.69
2018-11-28T15:45:22.062Z,96162.02
2018-11-28T15:47:51.305Z,96170.34
2018-11-28T15:50:21.551Z,96180.38
2018-11-28T15:52:57.709Z,96179.98
2018-11-28T15:55:26.777Z,96181.78
2018-11-28T15:57:55.824Z,96180.84
2018-11-28T16:03:00.772Z,96181.26
2018-11-28T16:05:29.730Z,96185.13
2018-11-28T16:07:58.761Z,96180.75
2018-11-28T16:13:05.673Z,96178.32
2018-11-28T16:15:35.643Z,96181.73
2018-11-28T16:18:05.667Z,96190.86
2018-11-28T16:20:34.715Z,96193.75
2018-11-28T16:23:04.843Z,96187.48
2018-11-28T16:25:32.835Z,96189.40
2018-11-28T16:28:01.891Z,96192.14
2018-11-28T16:30:32.438Z,96190.63
2018-11-28T16:33:01.556Z,96190.34
2018-11-28T16:35:30.759Z,96186.81
2018-11-28T16:37:59.808Z,96190.41
2018-11-28T16:40:28.854Z,96195.38
2018-11-28T16:42:58.023Z,96197.48
2018-11-28T16:45:27.087Z,96202.73
2018-11-28T16:47:56.151Z,96209.30
2018-11-28T16:50:25.228Z,96204.92
2018-11-28T16:52:54.264Z,96205.41
2018-11-28T16:55:23.316Z,96204.70
2018-11-28T16:57:52.392Z,96202.41
2018-11-28T17:00:21.432Z,96202.34
2018-11-28T17:02:50.488Z,96197.33
2018-11-28T17:05:19.542Z,96198.09
2018-11-28T17:07:48.605Z,96206.42
2018-11-28T17:10:17.662Z,96208.45
2018-11-28T17:12:46.728Z,96214.52
2018-11-28T17:15:15.769Z,96219.05
2018-11-28T17:17:44.840Z,96223.62
2018-11-28T17:20:13.900Z,96221.10
2018-11-28T17:22:42.946Z,96224.19
2018-11-28T17:25:11.997Z,96230.25
2018-11-28T17:27:41.049Z,96227.36
2018-11-28T17:30:10.121Z,96222.58
2018-11-28T17:32:39.164Z,96225.38
2018-11-28T17:35:08.248Z,96216.89
2018-11-28T17:37:50.865Z,96203.36
2018-11-28T17:40:20.654Z,96199.45
2018-11-28T17:42:49.750Z,96195.30
2018-11-28T17:45:18.763Z,96197.47
2018-11-28T17:47:47.815Z,96204.16
2018-11-28T17:50:18.291Z,96203.52
2018-11-28T17:52:47.472Z,96204.16
2018-11-28T17:55:16.567Z,96198.91
2018-11-28T17:57:52.051Z,96202.25
2018-11-28T18:00:22.744Z,96209.92
2018-11-28T18:02:51.912Z,96204.81
2018-11-28T18:05:21.024Z,96203.57
2018-11-28T18:07:50.129Z,96209.76
2018-11-28T18:10:20.797Z,96212.50
2018-11-28T18:12:49.911Z,96216.83
2018-11-28T18:15:19.071Z,96216.08
2018-11-28T18:17:48.344Z,96214.41
2018-11-28T18:22:53.164Z,96214.17
2018-11-28T18:25:22.387Z,96218.69
2018-11-28T18:27:51.429Z,96219.72
2018-11-28T18:30:20.841Z,96212.35
2018-11-28T18:32:49.870Z,96210.75
2018-11-28T18:35:18.955Z,96204.36
2018-11-28T18:37:48.031Z,96203.69
2018-11-28T18:40:21.893Z,96197.68
2018-11-28T18:42:50.924Z,96194.34
2018-11-28T18:45:19.988Z,96187.17
2018-11-28T18:47:49.064Z,96191.31
2018-11-28T18:50:18.119Z,96200.63
2018-11-28T18:52:47.178Z,96199.24
2018-11-28T18:55:16.773Z,96194.22
2018-11-28T18:57:45.281Z,96196.52
2018-11-28T19:00:15.348Z,96204.31
2018-11-28T19:02:44.423Z,96200.86
2018-11-28T19:05:13.585Z,96201.77
2018-11-28T19:07:42.761Z,96202.59
2018-11-28T19:10:13.887Z,96205.51
2018-11-28T19:12:42.945Z,96207.92
2018-11-28T19:17:47.873Z,96210.11
2018-11-28T19:20:16.916Z,96204.03
2018-11-28T19:22:48.127Z,96201.83
2018-11-28T19:25:17.163Z,96202.87
2018-11-28T19:27:46.204Z,96208.28
2018-11-28T19:32:51.012Z,96198.63
2018-11-28T19:35:20.114Z,96201.59
2018-11-28T19:37:49.184Z,96204.23
2018-11-28T19:40:18.310Z,96206.13
2018-11-28T19:42:47.656Z,96207.39
2018-11-28T19:45:16.795Z,96209.11
2018-11-28T19:47:46.282Z,96199.73
2018-11-28T19:50:15.584Z,96196.98
2018-11-28T19:52:44.896Z,96203.63
2018-11-28T19:55:14.006Z,96204.36
2018-11-28T19:57:43.056Z,96211.69
2018-11-28T20:00:12.091Z,96211.09
2018-11-28T20:02:41.131Z,96211.25
2018-11-28T20:05:12.053Z,96211.95
2018-11-28T20:07:41.081Z,96199.17
2018-11-28T20:10:10.160Z,96206.75
2018-11-28T20:15:15.653Z,96191.23
2018-11-28T20:17:45.221Z,96187.88
2018-11-28T20:20:14.416Z,96189.96
2018-11-28T20:22:43.733Z,96183.75
2018-11-28T20:25:12.854Z,96190.41
2018-11-28T20:27:41.947Z,96193.26
2018-11-28T20:32:47.935Z,96200.63
2018-11-28T20:35:17.089Z,96191.58
2018-11-28T20:37:49.129Z,96193.61
2018-11-28T20:40:18.394Z,96198.82
2018-11-28T20:42:47.603Z,96197.55
2018-11-28T20:45:16.983Z,96202.80
2018-11-28T20:47:46.661Z,96207.09
2018-11-28T20:50:16.807Z,96197.73
2018-11-28T20:52:46.126Z,96198.92
2018-11-28T20:55:21.085Z,96191.81
2018-11-28T20:57:50.571Z,96194.14
2018-11-28T21:00:19.784Z,96205.22
2018-11-28T21:02:50.355Z,96201.65
2018-11-28T21:05:19.622Z,96194.30
2018-11-28T21:10:25.190Z,96196.38
2018-11-28T21:12:55.262Z,96195.08
2018-11-28T21:15:25.022Z,96201.23
2018-11-28T21:17:54.153Z,96211.44
2018-11-28T21:20:23.909Z,96212.48
2018-11-28T21:22:53.222Z,96221.50
2018-11-28T21:25:22.430Z,96222.38
2018-11-28T21:27:52.603Z,96217.48
2018-11-28T21:32:57.505Z,96221.63
2018-11-28T21:35:28.305Z,96221.45
2018-11-28T21:37:58.525Z,96217.87
2018-11-28T21:40:28.378Z,96216.61
2018-11-28T21:42:58.431Z,96212.66
2018-11-28T21:45:27.685Z,96205.89
2018-11-28T21:47:59.758Z,96201.09
2018-11-28T21:50:29.068Z,96200.81
2018-11-28T21:53:03.893Z,96217.03
2018-11-28T21:55:36.400Z,96225.39
2018-11-28T21:58:05.955Z,96211.11
2018-11-28T22:00:35.087Z,96206.73
2018-11-28T22:03:04.146Z,96211.83
2018-11-28T22:05:33.235Z,96203.61
2018-11-28T22:08:02.289Z,96207.98
2018-11-28T22:10:31.543Z,96207.06
2018-11-28T22:13:01.753Z,96207.81
2018-11-28T22:15:30.978Z,96206.22
2018-11-28T22:18:00.177Z,96212.44
2018-11-28T22:20:29.563Z,96206.78
2018-11-28T22:22:58.682Z,96209.34
2018-11-28T22:25:27.804Z,96205.44
2018-11-28T22:27:56.891Z,96212.34
2018-11-28T22:30:25.970Z,96211.95
2018-11-28T22:33:01.546Z,96218.28
2018-11-28T22:35:30.952Z,96221.39
2018-11-28T22:40:38.651Z,96231.23
2018-11-28T22:43:07.720Z,96225.32
2018-11-28T22:45:36.824Z,96225.06
2018-11-28T22:48:05.897Z,96222.45
2018-11-28T22:50:34.947Z,96216.64
2018-11-28T22:53:04.045Z,96209.58
2018-11-28T22:55:33.251Z,96211.52
2018-11-28T22:58:02.308Z,96208.38
2018-11-28T23:00:31.395Z,96214.26
2018-11-28T23:03:00.539Z,96208.58
2018-11-28T23:08:05.321Z,96210.63
2018-11-28T23:10:34.379Z,96207.23
2018-11-28T23:15:39.173Z,96194.80
2018-11-28T23:18:08.340Z,96199.78
2018-11-28T23:20:52.735Z,96201.11
2018-11-28T23:23:21.819Z,96202.50
2018-11-28T23:25:51.806Z,96192.41
2018-11-28T23:28:21.049Z,96183.17
2018-11-28T23:30:50.135Z,96165.27
2018-11-28T23:33:19.205Z,96164.98
2018-11-28T23:35:48.277Z,96165.00
2018-11-28T23:38:17.427Z,96163.42
2018-11-28T23:40:46.516Z,96163.47
2018-11-28T23:43:15.599Z,96163.52
2018-11-28T23:45:44.672Z,96154.66
2018-11-28T23:48:13.790Z,96150.86
2018-11-28T23:50:42.835Z,96154.38
2018-11-28T23:53:11.968Z,96160.73
2018-11-28T23:55:41.057Z,96165.33
